sensor_id;sensor_type;location;lat;lon;timestamp;pressure;altitude;pressure_sealevel;temperature;humidity
58373;BME280;44177;43.356;27.672;2022-10-13T00:00:30;98900.69;;;17.96;47.67
58373;BME280;44177;43.356;27.672;2022-10-13T00:03:00;98889.22;;;17.94;47.87
58373;BME280;44177;43.356;27.672;2022-10-13T00:05:27;98891.97;;;17.94;47.58
58373;BME280;44177;43.356;27.672;2022-10-13T00:07:53;98892.34;;;17.93;47.61
58373;BME280;44177;43.356;27.672;2022-10-13T00:10:19;98895.91;;;17.93;47.86
58373;BME280;44177;43.356;27.672;2022-10-13T00:12:44;98896.69;;;17.94;47.46
58373;BME280;44177;43.356;27.672;2022-10-13T00:15:10;98889.22;;;17.94;47.49
58373;BME280;44177;43.356;27.672;2022-10-13T00:17:35;98890.00;;;17.95;47.42
58373;BME280;44177;43.356;27.672;2022-10-13T00:20:02;98881.69;;;17.91;47.74
58373;BME280;44177;43.356;27.672;2022-10-13T00:22:28;98891.16;;;17.94;47.81
58373;BME280;44177;43.356;27.672;2022-10-13T00:24:53;98889.56;;;17.93;47.83
58373;BME280;44177;43.356;27.672;2022-10-13T00:27:19;98891.16;;;17.94;47.45
58373;BME280;44177;43.356;27.672;2022-10-13T00:29:44;98890.38;;;17.93;47.62
58373;BME280;44177;43.356;27.672;2022-10-13T00:32:10;98890.38;;;17.93;47.61
58373;BME280;44177;43.356;27.672;2022-10-13T00:34:36;98884.06;;;17.93;47.61
58373;BME280;44177;43.356;27.672;2022-10-13T00:37:02;98884.88;;;17.93;47.43
58373;BME280;44177;43.356;27.672;2022-10-13T00:39:28;98884.88;;;17.93;47.47
58373;BME280;44177;43.356;27.672;2022-10-13T00:41:53;98890.38;;;17.93;47.56
58373;BME280;44177;43.356;27.672;2022-10-13T00:47:23;98880.53;;;17.92;47.63
58373;BME280;44177;43.356;27.672;2022-10-13T00:49:50;98875.38;;;17.91;47.65
58373;BME280;44177;43.356;27.672;2022-10-13T00:52:19;98873.41;;;17.91;47.56
58373;BME280;44177;43.356;27.672;2022-10-13T00:54:45;98878.94;;;17.91;47.65
58373;BME280;44177;43.356;27.672;2022-10-13T00:57:11;98872.59;;;17.87;47.57
58373;BME280;44177;43.356;27.672;2022-10-13T00:59:38;98882.47;;;17.92;47.91
58373;BME280;44177;43.356;27.672;2022-10-13T01:02:04;98874.53;;;17.87;47.86
58373;BME280;44177;43.356;27.672;2022-10-13T01:04:36;98880.88;;;17.87;47.59
58373;BME280;44177;43.356;27.672;2022-10-13T01:07:04;98882.84;;;17.90;47.71
58373;BME280;44177;43.356;27.672;2022-10-13T01:09:30;98890.34;;;17.90;47.50
58373;BME280;44177;43.356;27.672;2022-10-13T01:17:40;98888.75;;;17.89;47.89
58373;BME280;44177;43.356;27.672;2022-10-13T01:23:04;98875.34;;;17.87;47.73
58373;BME280;44177;43.356;27.672;2022-10-13T01:31:27;98869.00;;;17.83;47.88
58373;BME280;44177;43.356;27.672;2022-10-13T01:36:52;98873.75;;;17.86;47.73
58373;BME280;44177;43.356;27.672;2022-10-13T01:39:45;98876.53;;;17.86;47.73
58373;BME280;44177;43.356;27.672;2022-10-13T01:42:24;98866.66;;;17.85;47.91
58373;BME280;44177;43.356;27.672;2022-10-13T01:44:54;98868.59;;;17.84;47.76
58373;BME280;44177;43.356;27.672;2022-10-13T01:47:24;98865.84;;;17.84;47.59
58373;BME280;44177;43.356;27.672;2022-10-13T01:49:51;98869.41;;;17.85;47.73
58373;BME280;44177;43.356;27.672;2022-10-13T01:52:19;98870.19;;;17.86;47.93
58373;BME280;44177;43.356;27.672;2022-10-13T01:54:53;98865.81;;;17.81;47.92
58373;BME280;44177;43.356;27.672;2022-10-13T02:00:06;98871.75;;;17.83;47.94
58373;BME280;44177;43.356;27.672;2022-10-13T02:08:04;98875.69;;;17.82;47.85
58373;BME280;44177;43.356;27.672;2022-10-13T02:13:33;98879.59;;;17.81;48.11
58373;BME280;44177;43.356;27.672;2022-10-13T02:16:01;98882.38;;;17.81;47.69
58373;BME280;44177;43.356;27.672;2022-10-13T02:18:30;98883.88;;;17.75;48.03
58373;BME280;44177;43.356;27.672;2022-10-13T02:20:56;98880.78;;;17.80;48.13
58373;BME280;44177;43.356;27.672;2022-10-13T02:23:23;98887.09;;;17.80;47.86
58373;BME280;44177;43.356;27.672;2022-10-13T02:25:49;98889.06;;;17.80;47.89
58373;BME280;44177;43.356;27.672;2022-10-13T02:28:15;98890.66;;;17.81;47.97
58373;BME280;44177;43.356;27.672;2022-10-13T02:30:43;98887.88;;;17.81;48.08
58373;BME280;44177;43.356;27.672;2022-10-13T02:33:10;98881.16;;;17.78;47.85
58373;BME280;44177;43.356;27.672;2022-10-13T02:35:35;98889.06;;;17.80;47.97
58373;BME280;44177;43.356;27.672;2022-10-13T02:38:01;98884.72;;;17.79;47.82
58373;BME280;44177;43.356;27.672;2022-10-13T02:40:26;98881.59;;;17.80;47.82
58373;BME280;44177;43.356;27.672;2022-10-13T02:42:52;98891.44;;;17.81;47.75
58373;BME280;44177;43.356;27.672;2022-10-13T02:45:17;98892.63;;;17.80;47.85
58373;BME280;44177;43.356;27.672;2022-10-13T02:47:43;98889.06;;;17.80;47.85
58373;BME280;44177;43.356;27.672;2022-10-13T02:50:09;98894.97;;;17.78;47.77
58373;BME280;44177;43.356;27.672;2022-10-13T02:52:34;98898.53;;;17.79;47.99
58373;BME280;44177;43.356;27.672;2022-10-13T02:55:00;98896.56;;;17.79;47.91
58373;BME280;44177;43.356;27.672;2022-10-13T02:57:26;98896.16;;;17.81;48.15
58373;BME280;44177;43.356;27.672;2022-10-13T02:59:51;98880.69;;;17.73;47.83
58373;BME280;44177;43.356;27.672;2022-10-13T03:02:18;98885.13;;;17.81;47.88
58373;BME280;44177;43.356;27.672;2022-10-13T03:04:44;98887.84;;;17.77;47.81
58373;BME280;44177;43.356;27.672;2022-10-13T03:07:09;98887.09;;;17.80;48.05
58373;BME280;44177;43.356;27.672;2022-10-13T03:09:35;98894.22;;;17.81;47.81
58373;BME280;44177;43.356;27.672;2022-10-13T03:12:01;98894.22;;;17.81;47.71
58373;BME280;44177;43.356;27.672;2022-10-13T03:14:26;98887.88;;;17.81;47.90
58373;BME280;44177;43.356;27.672;2022-10-13T03:16:52;98888.69;;;17.81;47.96
58373;BME280;44177;43.356;27.672;2022-10-13T03:19:17;98889.47;;;17.82;47.96
58373;BME280;44177;43.356;27.672;2022-10-13T03:21:43;98884.72;;;17.79;47.71
58373;BME280;44177;43.356;27.672;2022-10-13T03:24:08;98890.25;;;17.79;47.83
58373;BME280;44177;43.356;27.672;2022-10-13T03:26:34;98880.78;;;17.80;47.61
58373;BME280;44177;43.356;27.672;2022-10-13T03:29:00;98880.78;;;17.80;47.79
58373;BME280;44177;43.356;27.672;2022-10-13T03:31:26;98874.84;;;17.78;47.66
58373;BME280;44177;43.356;27.672;2022-10-13T03:33:52;98876.84;;;17.81;47.65
58373;BME280;44177;43.356;27.672;2022-10-13T03:36:17;98873.31;;;17.80;47.86
58373;BME280;44177;43.356;27.672;2022-10-13T03:38:43;98868.56;;;17.81;47.83
58373;BME280;44177;43.356;27.672;2022-10-13T03:41:11;98862.22;;;17.77;47.85
58373;BME280;44177;43.356;27.672;2022-10-13T03:43:37;98865.81;;;17.81;47.64
58373;BME280;44177;43.356;27.672;2022-10-13T03:46:04;98858.34;;;17.81;47.73
58373;BME280;44177;43.356;27.672;2022-10-13T03:48:31;98861.09;;;17.81;47.76
58373;BME280;44177;43.356;27.672;2022-10-13T03:50:57;98842.50;;;17.75;47.64
58373;BME280;44177;43.356;27.672;2022-10-13T03:53:23;98851.66;;;17.82;47.52
58373;BME280;44177;43.356;27.672;2022-10-13T03:55:54;98852.44;;;17.83;47.69
58373;BME280;44177;43.356;27.672;2022-10-13T03:58:20;98843.72;;;17.81;47.64
58373;BME280;44177;43.356;27.672;2022-10-13T04:00:46;98840.56;;;17.79;47.66
58373;BME280;44177;43.356;27.672;2022-10-13T04:03:12;98846.91;;;17.83;47.53
58373;BME280;44177;43.356;27.672;2022-10-13T04:05:38;98852.81;;;17.81;47.66
58373;BME280;44177;43.356;27.672;2022-10-13T04:08:04;98849.66;;;17.83;47.54
58373;BME280;44177;43.356;27.672;2022-10-13T04:10:29;98847.72;;;17.83;47.53
58373;BME280;44177;43.356;27.672;2022-10-13T04:12:55;98844.16;;;17.83;47.60
58373;BME280;44177;43.356;27.672;2022-10-13T04:15:20;98833.47;;;17.78;47.57
58373;BME280;44177;43.356;27.672;2022-10-13T04:17:46;98838.19;;;17.77;47.53
58373;BME280;44177;43.356;27.672;2022-10-13T04:20:11;98848.91;;;17.82;47.52
58373;BME280;44177;43.356;27.672;2022-10-13T04:22:37;98852.44;;;17.83;47.71
58373;BME280;44177;43.356;27.672;2022-10-13T04:25:03;98849.25;;;17.81;47.48
58373;BME280;44177;43.356;27.672;2022-10-13T04:27:29;98855.19;;;17.83;47.47
58373;BME280;44177;43.356;27.672;2022-10-13T04:29:55;98857.94;;;17.83;47.50
58373;BME280;44177;43.356;27.672;2022-10-13T04:32:20;98852.81;;;17.81;47.68
58373;BME280;44177;43.356;27.672;2022-10-13T04:34:46;98853.25;;;17.83;47.59
58373;BME280;44177;43.356;27.672;2022-10-13T04:37:11;98863.47;;;17.83;47.54
58373;BME280;44177;43.356;27.672;2022-10-13T04:39:37;98856.34;;;17.82;47.49
58373;BME280;44177;43.356;27.672;2022-10-13T04:42:02;98850.84;;;17.82;47.54
58373;BME280;44177;43.356;27.672;2022-10-13T04:44:28;98850.06;;;17.81;47.42
58373;BME280;44177;43.356;27.672;2022-10-13T04:46:53;98857.16;;;17.82;47.45
58373;BME280;44177;43.356;27.672;2022-10-13T04:49:19;98851.66;;;17.82;47.52
58373;BME280;44177;43.356;27.672;2022-10-13T04:51:45;98854.38;;;17.79;47.51
58373;BME280;44177;43.356;27.672;2022-10-13T04:54:10;98856.31;;;17.78;47.53
58373;BME280;44177;43.356;27.672;2022-10-13T04:56:36;98857.16;;;17.82;47.38
58373;BME280;44177;43.356;27.672;2022-10-13T04:59:02;98869.00;;;17.83;47.49
58373;BME280;44177;43.356;27.672;2022-10-13T05:01:30;98869.81;;;17.83;47.73
58373;BME280;44177;43.356;27.672;2022-10-13T05:03:58;98865.06;;;17.84;47.46
58373;BME280;44177;43.356;27.672;2022-10-13T05:06:30;98866.22;;;17.83;47.68
58373;BME280;44177;43.356;27.672;2022-10-13T05:08:56;98868.22;;;17.82;47.29
58373;BME280;44177;43.356;27.672;2022-10-13T05:11:23;98870.16;;;17.82;47.53
58373;BME280;44177;43.356;27.672;2022-10-13T05:13:49;98868.19;;;17.79;47.56
58373;BME280;44177;43.356;27.672;2022-10-13T05:16:16;98877.66;;;17.81;47.43
58373;BME280;44177;43.356;27.672;2022-10-13T05:18:42;98882.38;;;17.81;47.56
58373;BME280;44177;43.356;27.672;2022-10-13T05:21:13;98889.88;;;17.80;47.74
58373;BME280;44177;43.356;27.672;2022-10-13T05:23:39;98891.03;;;17.79;47.73
58373;BME280;44177;43.356;27.672;2022-10-13T05:26:11;98877.22;;;17.79;47.56
58373;BME280;44177;43.356;27.672;2022-10-13T05:28:37;98883.13;;;17.78;47.76
58373;BME280;44177;43.356;27.672;2022-10-13T05:31:14;98883.13;;;17.78;47.58
58373;BME280;44177;43.356;27.672;2022-10-13T05:33:40;98883.13;;;17.78;47.72
58373;BME280;44177;43.356;27.672;2022-10-13T05:36:08;98873.69;;;17.79;47.75
58373;BME280;44177;43.356;27.672;2022-10-13T05:38:34;98884.72;;;17.79;47.56
58373;BME280;44177;43.356;27.672;2022-10-13T05:41:04;98885.50;;;17.79;47.71
58373;BME280;44177;43.356;27.672;2022-10-13T05:43:31;98893.41;;;17.81;47.88
58373;BME280;44177;43.356;27.672;2022-10-13T05:45:57;98902.84;;;17.80;47.68
58373;BME280;44177;43.356;27.672;2022-10-13T05:48:23;98900.50;;;17.82;47.62
58373;BME280;44177;43.356;27.672;2022-10-13T05:50:48;98899.34;;;17.83;47.41
58373;BME280;44177;43.356;27.672;2022-10-13T05:53:14;98902.91;;;17.83;47.60
58373;BME280;44177;43.356;27.672;2022-10-13T05:55:39;98904.47;;;17.84;47.65
58373;BME280;44177;43.356;27.672;2022-10-13T05:58:05;98901.72;;;17.84;47.63
58373;BME280;44177;43.356;27.672;2022-10-13T06:00:30;98904.91;;;17.87;47.39
58373;BME280;44177;43.356;27.672;2022-10-13T06:03:07;98899.34;;;17.83;47.63
58373;BME280;44177;43.356;27.672;2022-10-13T06:05:35;98900.94;;;17.84;47.39
58373;BME280;44177;43.356;27.672;2022-10-13T06:08:00;98896.19;;;17.84;47.47
58373;BME280;44177;43.356;27.672;2022-10-13T06:10:27;98899.78;;;17.85;47.32
58373;BME280;44177;43.356;27.672;2022-10-13T06:12:52;98898.19;;;17.84;47.28
58373;BME280;44177;43.356;27.672;2022-10-13T06:15:18;98893.09;;;17.86;47.39
58373;BME280;44177;43.356;27.672;2022-10-13T06:17:43;98902.94;;;17.87;47.46
58373;BME280;44177;43.356;27.672;2022-10-13T06:20:09;98889.91;;;17.84;47.42
58373;BME280;44177;43.356;27.672;2022-10-13T06:22:37;98897.81;;;17.89;47.33
58373;BME280;44177;43.356;27.672;2022-10-13T06:25:04;98900.59;;;17.89;47.56
58373;BME280;44177;43.356;27.672;2022-10-13T06:27:31;98899.41;;;17.90;47.31
58373;BME280;44177;43.356;27.672;2022-10-13T06:29:56;98898.25;;;17.91;47.38
58373;BME280;44177;43.356;27.672;2022-10-13T06:32:22;98905.34;;;17.92;47.56
58373;BME280;44177;43.356;27.672;2022-10-13T06:34:47;98905.78;;;17.94;47.49
58373;BME280;44177;43.356;27.672;2022-10-13T06:37:13;98903.81;;;17.95;47.18
58373;BME280;44177;43.356;27.672;2022-10-13T06:39:38;98901.50;;;17.97;47.30
58373;BME280;44177;43.356;27.672;2022-10-13T06:42:04;98901.91;;;17.99;47.33
58373;BME280;44177;43.356;27.672;2022-10-13T06:44:30;98902.69;;;17.99;47.43
58373;BME280;44177;43.356;27.672;2022-10-13T06:46:56;98901.53;;;18.01;47.08
58373;BME280;44177;43.356;27.672;2022-10-13T06:49:23;98905.06;;;18.01;47.25
58373;BME280;44177;43.356;27.672;2022-10-13T06:51:49;98911.41;;;18.02;47.33
58373;BME280;44177;43.356;27.672;2022-10-13T06:54:14;98901.91;;;17.99;47.36
58373;BME280;44177;43.356;27.672;2022-10-13T06:56:40;98911.78;;;18.04;47.30
58373;BME280;44177;43.356;27.672;2022-10-13T06:59:06;98907.88;;;18.05;47.01
58373;BME280;44177;43.356;27.672;2022-10-13T07:01:31;98912.22;;;18.06;47.08
58373;BME280;44177;43.356;27.672;2022-10-13T07:03:57;98912.63;;;18.08;47.26
58373;BME280;44177;43.356;27.672;2022-10-13T07:06:23;98903.53;;;18.07;46.96
58373;BME280;44177;43.356;27.672;2022-10-13T07:08:48;98910.31;;;18.10;47.21
58373;BME280;44177;43.356;27.672;2022-10-13T07:11:14;98911.09;;;18.10;47.06
58373;BME280;44177;43.356;27.672;2022-10-13T07:13:41;98898.84;;;18.08;47.20
58373;BME280;44177;43.356;27.672;2022-10-13T07:16:07;98911.91;;;18.14;47.12
58373;BME280;44177;43.356;27.672;2022-10-13T07:18:34;98908.78;;;18.16;46.88
58373;BME280;44177;43.356;27.672;2022-10-13T07:21:00;98900.91;;;18.18;46.98
58373;BME280;44177;43.356;27.672;2022-10-13T07:23:26;98897.75;;;18.20;46.93
58373;BME280;44177;43.356;27.672;2022-10-13T07:25:52;98889.91;;;18.22;46.71
58373;BME280;44177;43.356;27.672;2022-10-13T07:28:19;98879.63;;;18.22;47.05
58373;BME280;44177;43.356;27.672;2022-10-13T07:30:44;98888.34;;;18.24;46.83
58373;BME280;44177;43.356;27.672;2022-10-13T07:33:10;98895.44;;;18.25;46.83
58373;BME280;44177;43.356;27.672;2022-10-13T07:35:38;98886.00;;;18.26;47.01
58373;BME280;44177;43.356;27.672;2022-10-13T07:38:05;98889.16;;;18.28;46.95
58373;BME280;44177;43.356;27.672;2022-10-13T07:40:31;98888.41;;;18.31;46.50
58373;BME280;44177;43.356;27.672;2022-10-13T07:42:56;98882.88;;;18.31;46.72
58373;BME280;44177;43.356;27.672;2022-10-13T07:45:22;98882.13;;;18.35;46.75
58373;BME280;44177;43.356;27.672;2022-10-13T07:47:48;98884.09;;;18.38;46.69
58373;BME280;44177;43.356;27.672;2022-10-13T07:50:13;98883.34;;;18.41;46.32
58373;BME280;44177;43.356;27.672;2022-10-13T07:52:39;98879.03;;;18.43;46.28
58373;BME280;44177;43.356;27.672;2022-10-13T07:55:05;98882.56;;;18.44;46.49
58373;BME280;44177;43.356;27.672;2022-10-13T07:57:31;98891.25;;;18.46;46.32
58373;BME280;44177;43.356;27.672;2022-10-13T07:59:56;98887.75;;;18.49;46.41
58373;BME280;44177;43.356;27.672;2022-10-13T08:02:22;98873.94;;;18.49;46.47
58373;BME280;44177;43.356;27.672;2022-10-13T08:04:47;98880.66;;;18.52;46.09
58373;BME280;44177;43.356;27.672;2022-10-13T08:07:13;98878.69;;;18.52;46.31
58373;BME280;44177;43.356;27.672;2022-10-13T08:09:40;98881.47;;;18.56;46.14
58373;BME280;44177;43.356;27.672;2022-10-13T08:12:06;98867.59;;;18.49;46.31
58373;BME280;44177;43.356;27.672;2022-10-13T08:14:31;98878.69;;;18.56;46.43
58373;BME280;44177;43.356;27.672;2022-10-13T08:16:57;98870.84;;;18.58;46.09
58373;BME280;44177;43.356;27.672;2022-10-13T08:19:23;98869.25;;;18.60;46.18
58373;BME280;44177;43.356;27.672;2022-10-13T08:21:51;98870.06;;;18.61;46.44
58373;BME280;44177;43.356;27.672;2022-10-13T08:24:16;98874.44;;;18.62;46.12
58373;BME280;44177;43.356;27.672;2022-10-13T08:26:43;98867.34;;;18.65;46.06
58373;BME280;44177;43.356;27.672;2022-10-13T08:29:09;98868.13;;;18.65;46.28
58373;BME280;44177;43.356;27.672;2022-10-13T08:31:35;98864.97;;;18.67;46.10
58373;BME280;44177;43.356;27.672;2022-10-13T08:34:01;98871.31;;;18.71;45.94
58373;BME280;44177;43.356;27.672;2022-10-13T08:36:26;98870.56;;;18.74;45.90
58373;BME280;44177;43.356;27.672;2022-10-13T08:38:52;98868.19;;;18.76;45.95
58373;BME280;44177;43.356;27.672;2022-10-13T08:41:24;98869.78;;;18.77;46.24
58373;BME280;44177;43.356;27.672;2022-10-13T08:43:55;98878.47;;;18.79;45.80
58373;BME280;44177;43.356;27.672;2022-10-13T08:46:27;98871.78;;;18.80;46.03
58373;BME280;44177;43.356;27.672;2022-10-13T08:48:55;98872.19;;;18.82;45.82
58373;BME280;44177;43.356;27.672;2022-10-13T08:51:21;98863.09;;;18.82;46.00
58373;BME280;44177;43.356;27.672;2022-10-13T08:53:47;98864.28;;;18.84;45.81
58373;BME280;44177;43.356;27.672;2022-10-13T08:56:31;98871.81;;;18.87;45.56
58373;BME280;44177;43.356;27.672;2022-10-13T08:58:58;98865.13;;;18.88;45.80
58373;BME280;44177;43.356;27.672;2022-10-13T09:01:29;98864.31;;;18.91;45.55
58373;BME280;44177;43.356;27.672;2022-10-13T09:06:31;98868.34;;;18.94;45.74
58373;BME280;44177;43.356;27.672;2022-10-13T09:09:06;98866.75;;;18.97;45.77
58373;BME280;44177;43.356;27.672;2022-10-13T09:11:33;98859.66;;;18.96;45.65
58373;BME280;44177;43.356;27.672;2022-10-13T09:14:02;98864.78;;;18.97;45.66
58373;BME280;44177;43.356;27.672;2022-10-13T09:16:43;98865.59;;;18.98;45.56
58373;BME280;44177;43.356;27.672;2022-10-13T09:19:32;98867.53;;;18.97;45.57
58373;BME280;44177;43.356;27.672;2022-10-13T09:28:00;98865.19;;;18.99;45.34
58373;BME280;44177;43.356;27.672;2022-10-13T09:30:32;98858.06;;;18.98;45.58
58373;BME280;44177;43.356;27.672;2022-10-13T09:33:15;98865.97;;;19.00;45.65
58373;BME280;44177;43.356;27.672;2022-10-13T09:36:04;98862.03;;;19.01;45.48
58373;BME280;44177;43.356;27.672;2022-10-13T09:38:35;98856.50;;;19.01;45.37
58373;BME280;44177;43.356;27.672;2022-10-13T09:48:48;98840.31;;;19.03;45.58
58373;BME280;44177;43.356;27.672;2022-10-13T09:53:55;98855.75;;;19.07;45.46
58373;BME280;44177;43.356;27.672;2022-10-13T09:59:11;98841.53;;;19.09;45.23
58373;BME280;44177;43.356;27.672;2022-10-13T10:01:43;98842.72;;;19.12;45.17
58373;BME280;44177;43.356;27.672;2022-10-13T10:04:13;98846.31;;;19.12;45.09
58373;BME280;44177;43.356;27.672;2022-10-13T10:06:40;98838.78;;;19.13;45.28
58373;BME280;44177;43.356;27.672;2022-10-13T10:11:58;98824.97;;;19.16;45.12
58373;BME280;44177;43.356;27.672;2022-10-13T10:14:25;98829.31;;;19.17;45.14
58373;BME280;44177;43.356;27.672;2022-10-13T10:19:51;98832.50;;;19.19;45.00
58373;BME280;44177;43.356;27.672;2022-10-13T10:30:28;98816.31;;;19.21;44.83
58373;BME280;44177;43.356;27.672;2022-10-13T10:33:16;98811.56;;;19.22;45.03
58373;BME280;44177;43.356;27.672;2022-10-13T10:44:10;98801.69;;;19.21;44.97
58373;BME280;44177;43.356;27.672;2022-10-13T10:46:41;98803.66;;;19.20;44.71
58373;BME280;44177;43.356;27.672;2022-10-13T10:49:24;98802.09;;;19.19;44.71
58373;BME280;44177;43.356;27.672;2022-10-13T10:51:51;98791.03;;;19.19;44.96
58373;BME280;44177;43.356;27.672;2022-10-13T10:57:39;98790.59;;;19.17;44.88
58373;BME280;44177;43.356;27.672;2022-10-13T11:00:04;98792.97;;;19.19;44.76
58373;BME280;44177;43.356;27.672;2022-10-13T11:02:43;98783.91;;;19.18;45.03
58373;BME280;44177;43.356;27.672;2022-10-13T11:05:13;98794.97;;;19.18;44.78
58373;BME280;44177;43.356;27.672;2022-10-13T11:17:45;98763.72;;;19.14;45.02
58373;BME280;44177;43.356;27.672;2022-10-13T11:25:47;98767.28;;;19.15;45.06
58373;BME280;44177;43.356;27.672;2022-10-13T11:30:48;98757.81;;;19.12;45.06
58373;BME280;44177;43.356;27.672;2022-10-13T11:33:34;98750.69;;;19.11;44.84
58373;BME280;44177;43.356;27.672;2022-10-13T11:44:53;98747.91;;;19.07;44.99
58373;BME280;44177;43.356;27.672;2022-10-13T11:50:16;98742.38;;;19.04;45.05
58373;BME280;44177;43.356;27.672;2022-10-13T11:53:18;98738.44;;;19.05;45.13
58373;BME280;44177;43.356;27.672;2022-10-13T11:55:56;98728.56;;;19.00;45.17
58373;BME280;44177;43.356;27.672;2022-10-13T11:58:27;98734.88;;;19.04;44.92
58373;BME280;44177;43.356;27.672;2022-10-13T12:01:01;98717.88;;;18.99;44.97
58373;BME280;44177;43.356;27.672;2022-10-13T12:05:59;98728.56;;;19.00;45.17
58373;BME280;44177;43.356;27.672;2022-10-13T12:08:26;98725.38;;;18.98;45.23
58373;BME280;44177;43.356;27.672;2022-10-13T12:10:54;98726.16;;;18.99;44.98
58373;BME280;44177;43.356;27.672;2022-10-13T12:13:28;98723.78;;;18.97;45.03
58373;BME280;44177;43.356;27.672;2022-10-13T12:16:02;98719.44;;;18.96;45.07
58373;BME280;44177;43.356;27.672;2022-10-13T12:18:32;98723.00;;;18.97;45.22
58373;BME280;44177;43.356;27.672;2022-10-13T12:21:10;98723.78;;;18.93;45.32
58373;BME280;44177;43.356;27.672;2022-10-13T12:23:36;98719.84;;;18.94;45.34
58373;BME280;44177;43.356;27.672;2022-10-13T12:26:02;98715.88;;;18.92;45.33
58373;BME280;44177;43.356;27.672;2022-10-13T12:28:51;98718.25;;;18.93;45.38
58373;BME280;44177;43.356;27.672;2022-10-13T12:31:45;98718.25;;;18.93;45.27
58373;BME280;44177;43.356;27.672;2022-10-13T12:34:31;98716.66;;;18.92;45.25
58373;BME280;44177;43.356;27.672;2022-10-13T12:37:01;98704.84;;;18.92;45.55
58373;BME280;44177;43.356;27.672;2022-10-13T12:39:29;98699.31;;;18.92;45.33
58373;BME280;44177;43.356;27.672;2022-10-13T12:41:57;98705.16;;;18.90;45.40
58373;BME280;44177;43.356;27.672;2022-10-13T12:44:25;98698.88;;;18.90;45.38
58373;BME280;44177;43.356;27.672;2022-10-13T12:46:56;98706.38;;;18.89;45.53
58373;BME280;44177;43.356;27.672;2022-10-13T12:49:28;98691.34;;;18.87;45.36
58373;BME280;44177;43.356;27.672;2022-10-13T12:52:14;98690.97;;;18.88;45.29
58373;BME280;44177;43.356;27.672;2022-10-13T12:54:48;98687.03;;;18.89;45.30
58373;BME280;44177;43.356;27.672;2022-10-13T12:59:42;98677.94;;;18.89;45.51
58373;BME280;44177;43.356;27.672;2022-10-13T13:02:24;98685.44;;;18.88;45.54
58373;BME280;44177;43.356;27.672;2022-10-13T13:04:50;98683.84;;;18.87;45.57
58373;BME280;44177;43.356;27.672;2022-10-13T13:07:32;98689.38;;;18.87;45.52
58373;BME280;44177;43.356;27.672;2022-10-13T13:12:33;98686.63;;;18.87;45.58
58373;BME280;44177;43.356;27.672;2022-10-13T13:15:32;98689.38;;;18.87;45.68
58373;BME280;44177;43.356;27.672;2022-10-13T13:20:52;98692.16;;;18.87;45.56
58373;BME280;44177;43.356;27.672;2022-10-13T13:23:18;98686.22;;;18.85;45.43
58373;BME280;44177;43.356;27.672;2022-10-13T13:25:58;98691.75;;;18.85;45.43
58373;BME280;44177;43.356;27.672;2022-10-13T13:28:28;98693.72;;;18.85;45.44
58373;BME280;44177;43.356;27.672;2022-10-13T13:30:54;98692.91;;;18.84;45.60
58373;BME280;44177;43.356;27.672;2022-10-13T13:33:20;98688.97;;;18.85;45.47
58373;BME280;44177;43.356;27.672;2022-10-13T13:35:45;98691.75;;;18.85;45.66
58373;BME280;44177;43.356;27.672;2022-10-13T13:38:13;98694.50;;;18.85;45.58
58373;BME280;44177;43.356;27.672;2022-10-13T13:40:38;98692.91;;;18.84;45.73
58373;BME280;44177;43.356;27.672;2022-10-13T13:43:03;98692.91;;;18.84;45.45
58373;BME280;44177;43.356;27.672;2022-10-13T13:45:29;98690.16;;;18.84;45.49
58373;BME280;44177;43.356;27.672;2022-10-13T13:47:54;98699.63;;;18.83;45.47
58373;BME280;44177;43.356;27.672;2022-10-13T13:52:45;98685.03;;;18.83;45.57
58373;BME280;44177;43.356;27.672;2022-10-13T13:55:11;98683.44;;;18.78;45.57
58373;BME280;44177;43.356;27.672;2022-10-13T13:57:36;98677.91;;;18.82;45.68
58373;BME280;44177;43.356;27.672;2022-10-13T14:00:03;98691.72;;;18.82;45.52
58373;BME280;44177;43.356;27.672;2022-10-13T14:02:29;98682.66;;;18.81;45.74
58373;BME280;44177;43.356;27.672;2022-10-13T14:04:54;98677.13;;;18.81;45.85
58373;BME280;44177;43.356;27.672;2022-10-13T14:07:20;98688.19;;;18.81;45.83
58373;BME280;44177;43.356;27.672;2022-10-13T14:09:45;98678.69;;;18.78;45.81
58373;BME280;44177;43.356;27.672;2022-10-13T14:12:11;98677.13;;;18.81;45.89
58373;BME280;44177;43.356;27.672;2022-10-13T14:14:36;98678.69;;;18.78;45.60
58373;BME280;44177;43.356;27.672;2022-10-13T14:17:02;98679.50;;;18.79;45.70
58373;BME280;44177;43.356;27.672;2022-10-13T14:19:29;98677.91;;;18.78;45.54
58373;BME280;44177;43.356;27.672;2022-10-13T14:21:55;98681.84;;;18.77;45.84
58373;BME280;44177;43.356;27.672;2022-10-13T14:24:20;98676.31;;;18.77;45.78
58373;BME280;44177;43.356;27.672;2022-10-13T14:26:46;98671.97;;;18.76;45.83
58373;BME280;44177;43.356;27.672;2022-10-13T14:29:11;98680.25;;;18.76;45.70
58373;BME280;44177;43.356;27.672;2022-10-13T14:31:38;98680.66;;;18.71;45.87
58373;BME280;44177;43.356;27.672;2022-10-13T14:34:03;98686.59;;;18.73;45.83
58373;BME280;44177;43.356;27.672;2022-10-13T14:36:29;98689.34;;;18.73;45.90
58373;BME280;44177;43.356;27.672;2022-10-13T14:38:54;98691.69;;;18.71;45.87
58373;BME280;44177;43.356;27.672;2022-10-13T14:41:20;98690.50;;;18.68;46.02
58373;BME280;44177;43.356;27.672;2022-10-13T14:43:46;98695.63;;;18.70;45.74
58373;BME280;44177;43.356;27.672;2022-10-13T14:46:12;98698.00;;;18.68;45.81
58373;BME280;44177;43.356;27.672;2022-10-13T14:48:38;98689.69;;;18.64;45.96
58373;BME280;44177;43.356;27.672;2022-10-13T14:51:08;98698.38;;;18.66;46.11
58373;BME280;44177;43.356;27.672;2022-10-13T14:53:35;98704.69;;;18.67;46.13
58373;BME280;44177;43.356;27.672;2022-10-13T14:56:02;98696.00;;;18.57;46.07